TN28 weather

Anderson-Tully County Heliport
Memphis, Tennessee, United States

Public forecast

Using degrees Fahrenheit for public forecast. Weather courtesy of forecast.io.

Closest aviation weather report (METAR) to Anderson-Tully County Heliport

Closest report is Memphis International Airport, 8.7 nm (16.0 km) SSE. Retrieved 2019/10/14 10:54 UTC (52 minutes ago):

KMEM 141054Z 00000KT 10SM CLR 08/07 A3009 RMK AO2 SLP189 T00780072

Closest aviation forecast (TAF) to Anderson-Tully County Heliport

Closest forecast is Memphis International Airport, 8.7 nm (16.0 km) SSE. Retrieved 2019/10/14 06:22 UTC (5 hours ago):

TAF KMEM 140520Z 1406/1512 00000KT P6SM SKC FM141800 14004KT P6SM FEW250 FM151100 14005KT P6SM SCT150